This is the latest recevied weather packets stored in our database for station/object IZ1UKX-13. If no packets are shown the sender has not sent any weather packets the latest 10 day(s).
| Time | Temp. | Humidity | Pressure | Rain* | Wind** | Luminosity | Snow |
|---|---|---|---|---|---|---|---|
| 1787827325 | 32.78° C | 46% | 1020.5 hPa | 0 mm | - | 0 W/m² | - |
| 1787827025 | 33.33° C | 46% | 1020.5 hPa | 0 mm | - | 0 W/m² | - |
| 1787826726 | 32.78° C | 47% | 1020.5 hPa | 0 mm | - | 0 W/m² | - |
| 1787826426 | 33.33° C | 45% | 1020.5 hPa | 0 mm | - | 0 W/m² | - |
| 1787826125 | 33.33° C | 45% | 1020.5 hPa | 0 mm | - | 0 W/m² | - |
| 1787825826 | 32.78° C | 46% | 1020.5 hPa | 0 mm | - | 0 W/m² | - |
| 1787825526 | 32.78° C | 45% | 1020.5 hPa | 0 mm | - | 0 W/m² | - |
| 1787825226 | 32.78° C | 43% | 1020.5 hPa | 0 mm | - | 0 W/m² | - |
| 1787824925 | 32.22° C | 45% | 1020.5 hPa | 0 mm | - | 0 W/m² | - |
| 1787824625 | 31.67° C | 49% | 1021 hPa | 0 mm | - | 0 W/m² | - |
| 1787824325 | 30.56° C | 51% | 1021 hPa | 0 mm | - | 0 W/m² | - |
| 1787824026 | 30° C | 51% | 1021 hPa | 0 mm | - | 0 W/m² | - |
| 1787823725 | 30.56° C | 53% | 1021 hPa | 0 mm | - | 0 W/m² | - |
| 1787823425 | 29.44° C | 53% | 1021 hPa | 0 mm | - | 0 W/m² | - |
| 1787823126 | 29.44° C | 52% | 1021 hPa | 0 mm | - | 0 W/m² | - |
| 1787822826 | 29.44° C | 53% | 1021 hPa | 0 mm | - | 0 W/m² | - |
| 1787822525 | 30° C | 52% | 1021 hPa | 0 mm | - | 0 W/m² | - |
| 1787822376 | 30° C | 52% | 1021 hPa | 0 mm | - | 0 W/m² | - |
| 1787822076 | 30° C | 54% | 1021 hPa | 0 mm | - | 0 W/m² | - |
| 1787821776 | 28.89° C | 56% | 1021.4 hPa | 0 mm | - | 0 W/m² | - |
| 1787821476 | 28.89° C | 56% | 1021.4 hPa | 0 mm | - | 0 W/m² | - |
| 1787821176 | 28.89° C | 57% | 1021.4 hPa | 0 mm | - | 0 W/m² | - |
| 1787820877 | 28.33° C | 58% | 1021.4 hPa | 0 mm | - | 0 W/m² | - |
| 1787820576 | 27.22° C | 62% | 1021.4 hPa | 0 mm | - | 0 W/m² | - |
| 1787820276 | 27.22° C | 61% | 1021.4 hPa | 0 mm | - | 0 W/m² | - |
* Rain latest hour (hover to see other rain measurements)
** Current wind speed in m/s (hover to see current wind gust speed)